createdAt,value
2023-02-18T00:03:22.635Z,100201.84
2023-02-18T00:07:34.550Z,100193.38
2023-02-18T00:11:39.563Z,100205.69
2023-02-18T00:15:43.474Z,100193.97
2023-02-18T00:19:53.517Z,100199.41
2023-02-18T00:24:03.327Z,100194.84
2023-02-18T00:28:08.449Z,100193.72
2023-02-18T00:32:12.076Z,100189.88
2023-02-18T00:36:19.882Z,100181.56
2023-02-18T00:40:29.752Z,100190.69
2023-02-18T00:44:33.256Z,100170.78
2023-02-18T00:48:43.526Z,100191.50
2023-02-18T00:52:47.441Z,100175.84
2023-02-18T00:57:01.051Z,100191.50
2023-02-18T01:01:15.877Z,100197.97
2023-02-18T01:05:24.277Z,100193.91
2023-02-18T01:09:28.048Z,100198.63
2023-02-18T01:13:33.674Z,100203.38
2023-02-18T01:17:37.219Z,100206.03
2023-02-18T01:21:45.366Z,100214.78
2023-02-18T01:25:58.677Z,100198.41
2023-02-18T01:30:04.531Z,100197.06
2023-02-18T01:34:08.516Z,100190.69
2023-02-18T01:38:11.807Z,100198.63
2023-02-18T01:42:33.266Z,100202.00
2023-02-18T01:46:38.777Z,100207.50
2023-02-18T01:50:48.001Z,100181.97
2023-02-18T01:54:57.002Z,100192.16
2023-02-18T01:59:03.392Z,100176.09
2023-02-18T02:03:08.081Z,100168.78
2023-02-18T02:07:29.836Z,100168.06
2023-02-18T02:11:50.789Z,100158.31
2023-02-18T02:16:01.917Z,100147.38
2023-02-18T02:20:43.944Z,100142.97
2023-02-18T02:25:11.382Z,100147.66
2023-02-18T02:29:42.182Z,100136.72
2023-02-18T02:34:09.266Z,100129.38
2023-02-18T02:38:21.813Z,100133.56
2023-02-18T02:42:42.101Z,100133.41
2023-02-18T02:46:50.228Z,100124.91
2023-02-18T02:51:07.108Z,100115.56
2023-02-18T02:55:15.298Z,100110.44
2023-02-18T02:59:23.669Z,100114.94
2023-02-18T03:03:50.501Z,100112.41
2023-02-18T03:08:11.006Z,100105.75
2023-02-18T03:12:20.395Z,100116.25
2023-02-18T03:16:33.671Z,100108.56
2023-02-18T03:20:38.716Z,100102.09
2023-02-18T03:24:44.212Z,100108.59
2023-02-18T03:28:51.203Z,100129.44
2023-02-18T03:33:04.448Z,100126.47
2023-02-18T03:37:12.293Z,100118.13
2023-02-18T03:41:16.781Z,100119.59
2023-02-18T03:45:24.868Z,100117.63
2023-02-18T03:49:28.263Z,100114.91
2023-02-18T03:53:32.267Z,100105.97
2023-02-18T03:57:38.558Z,100104.19
2023-02-18T04:01:43.359Z,100097.44
2023-02-18T04:05:46.835Z,100086.13
2023-02-18T04:09:50.725Z,100087.41
2023-02-18T04:13:55.554Z,100088.19
2023-02-18T04:18:00.981Z,100083.94
2023-02-18T04:22:04.834Z,100099.94
2023-02-18T04:26:08.554Z,100096.63
2023-02-18T04:30:11.912Z,100079.25
2023-02-18T04:34:16.941Z,100078.41
2023-02-18T04:38:20.324Z,100086.78
2023-02-18T04:42:23.690Z,100082.53
2023-02-18T04:46:27.133Z,100069.56
2023-02-18T04:50:32.544Z,100078.94
2023-02-18T04:54:36.073Z,100065.97
2023-02-18T04:58:39.769Z,100052.66
2023-02-18T05:02:43.017Z,100073.06
2023-02-18T05:06:51.258Z,100073.28
2023-02-18T05:10:55.415Z,100041.38
2023-02-18T05:14:58.934Z,100062.19
2023-02-18T05:19:02.618Z,100071.44
2023-02-18T05:23:07.547Z,100077.31
2023-02-18T05:27:10.948Z,100043.59
2023-02-18T05:31:14.566Z,100058.25
2023-02-18T05:35:18.432Z,100073.44
2023-02-18T05:39:23.835Z,100072.03
2023-02-18T05:43:27.489Z,100052.66
2023-02-18T05:47:31.345Z,100077.56
2023-02-18T05:51:35.043Z,100082.41
2023-02-18T05:55:43.033Z,100075.69
2023-02-18T05:59:46.589Z,100061.31
2023-02-18T06:03:53.300Z,100060.00
2023-02-18T06:07:57.012Z,100059.00
2023-02-18T06:12:02.504Z,100067.94
2023-02-18T06:16:06.677Z,100046.88
2023-02-18T06:20:12.240Z,100062.53
2023-02-18T06:24:15.706Z,100064.19
2023-02-18T06:28:26.702Z,100056.69
2023-02-18T06:32:29.739Z,100043.88
2023-02-18T06:36:33.192Z,100036.41
2023-02-18T06:40:36.234Z,100040.72
2023-02-18T06:44:40.955Z,100031.56
2023-02-18T06:48:45.701Z,100046.28
2023-02-18T06:52:49.055Z,100035.28
2023-02-18T06:56:52.117Z,100023.78
2023-02-18T07:01:10.967Z,100024.25
2023-02-18T07:05:14.962Z,100034.06
2023-02-18T07:09:21.825Z,100014.84
2023-02-18T07:13:26.118Z,100016.81
2023-02-18T07:17:34.068Z,100030.44
2023-02-18T07:21:37.242Z,100024.00
2023-02-18T07:25:41.094Z,100029.13
2023-02-18T07:29:46.399Z,100033.63
2023-02-18T07:33:51.162Z,100041.16
2023-02-18T07:37:54.553Z,100029.06
2023-02-18T07:41:58.579Z,100039.56
2023-02-18T07:46:07.383Z,100035.69
2023-02-18T07:50:18.440Z,100054.09
2023-02-18T07:54:22.255Z,100050.69
2023-02-18T07:58:26.351Z,100050.06
2023-02-18T08:02:30.299Z,100047.19
2023-02-18T08:06:35.726Z,100033.97
2023-02-18T08:10:38.494Z,100062.75
2023-02-18T08:14:42.530Z,100027.66
2023-02-18T08:18:51.362Z,100052.69
2023-02-18T08:22:55.724Z,100048.88
2023-02-18T08:27:01.282Z,100043.38
2023-02-18T08:31:04.718Z,100042.34
2023-02-18T08:35:08.817Z,100040.00
2023-02-18T08:39:15.159Z,100040.88
2023-02-18T08:43:21.124Z,100042.41
2023-02-18T08:48:13.295Z,100045.78
2023-02-18T08:51:53.947Z,100053.13
2023-02-18T08:55:59.963Z,100052.53
2023-02-18T09:00:06.311Z,100062.50
2023-02-18T09:04:09.689Z,100065.38
2023-02-18T09:08:12.855Z,100070.38
2023-02-18T09:12:17.541Z,100075.78
2023-02-18T09:16:29.246Z,100082.13
2023-02-18T09:20:32.619Z,100078.81
2023-02-18T09:24:40.547Z,100081.00
2023-02-18T09:28:53.536Z,100083.56
2023-02-18T09:33:01.109Z,100076.47
2023-02-18T09:37:04.590Z,100054.34
2023-02-18T09:41:11.712Z,100077.63
2023-02-18T09:45:17.319Z,100069.69
2023-02-18T09:49:28.622Z,100062.03
2023-02-18T09:53:33.093Z,100044.06
2023-02-18T09:57:51.486Z,100068.63
2023-02-18T10:01:57.714Z,100077.50
2023-02-18T10:06:04.327Z,100075.81
2023-02-18T10:10:20.080Z,100084.88
2023-02-18T10:14:23.653Z,100085.31
2023-02-18T10:18:32.516Z,100076.81
2023-02-18T10:22:35.776Z,100063.22
2023-02-18T10:26:40.730Z,100066.22
2023-02-18T10:30:49.531Z,100083.50
2023-02-18T10:34:57.781Z,100081.44
2023-02-18T10:39:10.641Z,100096.47
2023-02-18T10:43:30.583Z,100097.88
2023-02-18T10:47:40.897Z,100089.94
2023-02-18T10:52:04.938Z,100099.56
2023-02-18T10:56:12.072Z,100084.16
2023-02-18T11:00:24.739Z,100097.00
2023-02-18T11:04:33.409Z,100092.97
2023-02-18T11:08:46.835Z,100088.38
2023-02-18T11:13:04.701Z,100089.78
2023-02-18T11:17:28.268Z,100087.81
2023-02-18T11:21:35.017Z,100062.84
2023-02-18T11:25:43.326Z,100075.56
2023-02-18T11:29:48.273Z,100062.03
2023-02-18T11:34:01.132Z,100057.69
2023-02-18T11:38:23.192Z,100032.50
2023-02-18T11:42:29.631Z,100057.59
2023-02-18T11:46:36.144Z,100048.50
2023-02-18T11:50:43.630Z,100044.25
2023-02-18T11:55:01.900Z,100036.63
2023-02-18T11:59:18.155Z,100039.53
2023-02-18T12:03:32.969Z,100041.47
2023-02-18T12:07:47.220Z,100031.13
2023-02-18T12:11:53.231Z,100030.09
2023-02-18T12:16:06.307Z,100010.41
2023-02-18T12:20:28.573Z,100012.00
2023-02-18T12:24:43.005Z,100005.31
2023-02-18T12:28:57.982Z,99996.13
2023-02-18T12:33:10.158Z,100003.59
2023-02-18T12:37:47.365Z,99999.69
2023-02-18T12:42:00.753Z,100007.63
2023-02-18T12:46:25.836Z,100008.09
2023-02-18T12:51:00.147Z,99995.31
2023-02-18T12:55:26.947Z,99994.41
2023-02-18T13:00:00.358Z,99988.78
2023-02-18T13:04:24.622Z,99987.28
2023-02-18T13:08:38.499Z,99993.38
2023-02-18T13:12:48.632Z,99990.94
2023-02-18T13:16:53.838Z,99989.06
2023-02-18T13:20:59.553Z,99970.91
2023-02-18T13:25:03.850Z,99967.47
2023-02-18T13:29:19.250Z,99964.94
2023-02-18T13:33:30.343Z,99965.50
2023-02-18T13:37:39.469Z,99958.97
2023-02-18T13:41:45.144Z,99965.63
2023-02-18T13:46:20.829Z,99959.75
2023-02-18T13:50:32.958Z,99962.06
2023-02-18T13:54:44.942Z,99952.59
2023-02-18T13:58:53.702Z,99952.97
2023-02-18T14:02:59.571Z,99948.59
2023-02-18T14:07:31.524Z,99945.38
2023-02-18T14:11:55.746Z,99936.63
2023-02-18T14:16:03.413Z,99943.38
2023-02-18T14:20:46.859Z,99937.06
2023-02-18T14:24:52.396Z,99922.22
2023-02-18T14:28:57.505Z,99949.97
2023-02-18T14:33:02.234Z,99949.97
2023-02-18T14:37:14.807Z,99937.97
2023-02-18T14:41:28.287Z,99935.22
2023-02-18T14:45:41.743Z,99930.50
2023-02-18T14:49:47.674Z,99937.72
2023-02-18T14:53:51.500Z,99927.91
2023-02-18T14:57:55.427Z,99930.69
2023-02-18T15:01:58.588Z,99930.69
2023-02-18T15:06:03.065Z,99944.03
2023-02-18T15:10:06.941Z,99942.19
2023-02-18T15:14:13.296Z,99928.63
2023-02-18T15:18:30.814Z,99946.09
2023-02-18T15:22:37.484Z,99935.75
2023-02-18T15:26:44.240Z,99923.19
2023-02-18T15:30:48.514Z,99930.44
2023-02-18T15:34:52.832Z,99934.34
2023-02-18T15:38:58.351Z,99942.84
2023-02-18T15:43:12.077Z,99936.38
2023-02-18T15:47:21.889Z,99938.66
2023-02-18T15:51:29.976Z,99942.91
2023-02-18T15:55:37.061Z,99938.91
2023-02-18T15:59:45.658Z,99942.78
2023-02-18T16:03:48.726Z,99939.22
2023-02-18T16:07:59.640Z,99940.25
2023-02-18T16:12:05.631Z,99941.28
2023-02-18T16:16:19.284Z,99939.78
2023-02-18T16:20:28.792Z,99940.09
2023-02-18T16:24:33.686Z,99943.63
2023-02-18T16:28:44.000Z,99943.16
2023-02-18T16:32:47.213Z,99941.38
2023-02-18T16:37:08.306Z,99941.19
2023-02-18T16:41:13.417Z,99946.75
2023-02-18T16:45:18.025Z,99942.56
2023-02-18T16:49:21.418Z,99917.09
2023-02-18T16:53:24.431Z,99944.56
2023-02-18T16:57:27.365Z,99951.31
2023-02-18T17:01:34.498Z,99944.22
2023-02-18T17:05:40.822Z,99949.69
2023-02-18T17:09:43.612Z,99920.09
2023-02-18T17:13:46.527Z,99939.00
2023-02-18T17:17:51.522Z,99944.72
2023-02-18T17:21:55.053Z,99950.44
2023-02-18T17:25:58.657Z,99955.72
2023-02-18T17:30:02.174Z,99961.16
2023-02-18T17:34:09.090Z,99955.88
2023-02-18T17:38:13.358Z,99968.03
2023-02-18T17:42:17.065Z,99948.31
2023-02-18T17:46:20.350Z,99972.44
2023-02-18T17:50:25.534Z,99959.75
2023-02-18T17:54:29.462Z,99966.88
2023-02-18T17:58:32.341Z,99962.03
2023-02-18T18:02:35.688Z,99970.09
2023-02-18T18:06:40.285Z,99955.81
2023-02-18T18:10:50.379Z,99975.59
2023-02-18T18:14:53.739Z,99964.03
2023-02-18T18:18:57.047Z,99945.09
2023-02-18T18:23:03.543Z,99943.47
2023-02-18T18:27:07.590Z,99969.59
2023-02-18T18:31:15.327Z,99971.78
2023-02-18T18:35:30.009Z,99977.06
2023-02-18T18:39:36.380Z,99959.69
2023-02-18T18:43:40.619Z,99971.13
2023-02-18T18:47:43.852Z,99970.19
2023-02-18T18:51:47.541Z,99969.44
2023-02-18T18:55:53.421Z,99973.84
2023-02-18T18:59:59.491Z,99954.41
2023-02-18T19:04:02.773Z,99972.44
2023-02-18T19:08:12.615Z,99966.13
2023-02-18T19:12:17.253Z,99965.53
2023-02-18T19:16:23.873Z,99968.06
2023-02-18T19:20:28.786Z,99955.28
2023-02-18T19:24:32.545Z,99968.69
2023-02-18T19:28:37.648Z,99970.03
2023-02-18T19:32:41.145Z,99964.28
2023-02-18T19:36:45.314Z,99968.09
2023-02-18T19:40:51.652Z,99958.00
2023-02-18T19:44:56.761Z,99951.63
2023-02-18T19:49:02.113Z,99960.03
2023-02-18T19:53:06.203Z,99967.50
2023-02-18T19:57:09.717Z,99962.47
2023-02-18T20:01:15.191Z,99949.41
2023-02-18T20:05:18.866Z,99968.84
2023-02-18T20:09:22.209Z,99950.22
2023-02-18T20:13:27.088Z,99961.56
2023-02-18T20:17:37.596Z,99960.13
2023-02-18T20:21:47.550Z,99937.81
2023-02-18T20:25:51.089Z,99948.31
2023-02-18T20:29:54.588Z,99955.13
2023-02-18T20:33:59.171Z,99961.22
2023-02-18T20:38:02.450Z,99956.28
2023-02-18T20:42:15.773Z,99951.69
2023-02-18T20:46:22.117Z,99951.47
2023-02-18T20:50:27.036Z,99947.19
2023-02-18T20:54:30.205Z,99950.94
2023-02-18T20:58:35.278Z,99949.06
2023-02-18T21:02:38.349Z,99937.31
2023-02-18T21:06:45.367Z,99905.00
2023-02-18T21:10:48.631Z,99934.88
2023-02-18T21:14:51.994Z,99932.31
2023-02-18T21:18:55.605Z,99919.13
2023-02-18T21:23:00.261Z,99921.09
2023-02-18T21:27:04.130Z,99923.81
2023-02-18T21:31:16.349Z,99914.69
2023-02-18T21:35:19.570Z,99923.19
2023-02-18T21:39:24.290Z,99921.19
2023-02-18T21:43:27.932Z,99911.66
2023-02-18T21:47:31.074Z,99910.19
2023-02-18T21:51:54.380Z,99915.75
2023-02-18T21:56:03.809Z,99910.28
2023-02-18T22:00:19.556Z,99902.94
2023-02-18T22:04:24.193Z,99892.41
2023-02-18T22:08:27.128Z,99893.19
2023-02-18T22:12:32.887Z,99892.88
2023-02-18T22:16:36.558Z,99891.84
2023-02-18T22:20:42.597Z,99867.25
2023-02-18T22:24:46.513Z,99888.28
2023-02-18T22:28:55.081Z,99883.00
2023-02-18T22:32:58.364Z,99878.16
2023-02-18T22:37:01.740Z,99877.72
2023-02-18T22:41:05.789Z,99880.59
2023-02-18T22:45:11.886Z,99883.59
2023-02-18T22:49:18.219Z,99886.66
2023-02-18T22:53:21.416Z,99886.69
2023-02-18T22:57:24.733Z,99878.38
2023-02-18T23:01:31.482Z,99865.59
2023-02-18T23:05:35.837Z,99863.84
2023-02-18T23:09:39.842Z,99872.09
2023-02-18T23:13:43.914Z,99851.19
2023-02-18T23:17:51.629Z,99859.25
2023-02-18T23:21:55.003Z,99848.13
2023-02-18T23:26:02.083Z,99859.09
2023-02-18T23:30:05.785Z,99856.28
2023-02-18T23:34:17.696Z,99861.19
2023-02-18T23:38:25.262Z,99846.47
2023-02-18T23:42:28.520Z,99840.19
2023-02-18T23:46:31.908Z,99831.22
2023-02-18T23:50:36.629Z,99846.69
2023-02-18T23:54:40.924Z,99838.41
2023-02-18T23:58:45.553Z,99840.53
